Clayton, Mississippi
Current Conditions -  °F | °C
As of 5:55 PM on Sunday 23 Nov 2014 (Local Time) from KUTA Reporting Station
Broken Clouds Broken Clouds  
Wind Chill: 59°   Ceiling: 2500
Heat Index: 59°   Visibility: 10mi
Dew Point: 59°   Wind: 14mph
Humidity: 100%   Direction: 190°S
Pressure: 29.44"   Gusts: 17mph
Location:  34.5324°N, 90.3891°W
Report Text: KUTA 232355Z AUTO 19012G15KT 10SM SCT009 BKN025 15/15 A2944 RMK AO2
Loading
Personal Weather Stations






























Interactive Weather Map New forecast layout! Learn more

10-Day Weather Forecast

Advertisements
Track Severe Weather on mobile